ELY26 KEWR-LLBG
Flight info
| Callsign | ELY26 |
|---|---|
| Flight time | N/A |
| Altitude | 35000 |
| Route | MERIT DCT HFD DCT PUT DCT EBONY DCT JOOPY/M081F360 DCT 49N050W 51N040W 52N030W 53N020W DCT MALOT DCT GISTI/N0461F370 DCT LUNIG DCT WTD DCT ENJEX DCT ADHAV DCT AGCAT DCT AXNEF DCT ZIPWE DCT OZZIL DCT SAWPE Q63 CPT UL9 BIG L607 KONAN UL607 KOK DCT PITES/N0470F390 DCT EDISA DCT KUNOD DCT GEDSO DCT VEKEN DCT NEMEK DCT NAVSU DCT SOLGU DCT RUDAR DCT OSLUD DCT MEDUX UM867 KOGAT DCT ERANA UL737 TSL UN130 MES UL609 ALKIS L609 ZUKKO |
| Aircraft | B772/H-SDE2E3FGHIJ4J5LM1OP2RVWXY/LB1D1 |
Departure
| Time | 2026-04-20 20:18 |
|---|---|
| Airport | Newark Liberty International Airport (KEWR) |
Arrival
| Time | N/A |
|---|---|
| Airport | Ben Gurion International Airport (LLBG) |
| Time | Latitude | Longitude | Altitude | Speed | Heading |
|---|---|---|---|---|---|
| 2026-04-20 19:39 | 40.69242 | -74.17523 | 26 ft | 0 kts | 147° |
| 2026-04-20 20:08 | 40.69248 | -74.17529 | 26 ft | 4 kts | 151° |
| 2026-04-20 20:08 | 40.69270 | -74.17539 | 26 ft | 4 kts | 186° |
| 2026-04-20 20:08 | 40.69291 | -74.17529 | 24 ft | 4 kts | 217° |
| 2026-04-20 20:09 | 40.69309 | -74.17510 | 24 ft | 4 kts | 221° |
| 2026-04-20 20:09 | 40.69325 | -74.17486 | 24 ft | 4 kts | 250° |
| 2026-04-20 20:09 | 40.69329 | -74.17455 | 26 ft | 4 kts | 281° |
| 2026-04-20 20:09 | 40.69321 | -74.17421 | 24 ft | 4 kts | 290° |
| 2026-04-20 20:10 | 40.69327 | -74.17444 | 25 ft | 4 kts | 104° |
| 2026-04-20 20:10 | 40.69327 | -74.17411 | 24 ft | 4 kts | 84° |
| 2026-04-20 20:10 | 40.69328 | -74.17402 | 24 ft | 0 kts | 83° |
| 2026-04-20 20:13 | 40.69331 | -74.17376 | 25 ft | 6 kts | 83° |
| 2026-04-20 20:13 | 40.69325 | -74.17300 | 26 ft | 10 kts | 112° |
| 2026-04-20 20:13 | 40.69271 | -74.17218 | 26 ft | 14 kts | 128° |
| 2026-04-20 20:13 | 40.69211 | -74.17096 | 26 ft | 18 kts | 133° |
| 2026-04-20 20:14 | 40.69123 | -74.17100 | 28 ft | 13 kts | 204° |
| 2026-04-20 20:14 | 40.69032 | -74.17155 | 30 ft | 17 kts | 205° |
| 2026-04-20 20:14 | 40.68910 | -74.17235 | 27 ft | 22 kts | 206° |
| 2026-04-20 20:14 | 40.68756 | -74.17334 | 27 ft | 26 kts | 205° |
| 2026-04-20 20:15 | 40.68598 | -74.17432 | 27 ft | 23 kts | 206° |
| 2026-04-20 20:15 | 40.68459 | -74.17521 | 27 ft | 23 kts | 206° |
| 2026-04-20 20:15 | 40.68317 | -74.17611 | 26 ft | 23 kts | 206° |
| 2026-04-20 20:15 | 40.68174 | -74.17702 | 26 ft | 23 kts | 206° |
| 2026-04-20 20:16 | 40.68034 | -74.17791 | 30 ft | 23 kts | 206° |
| 2026-04-20 20:16 | 40.67892 | -74.17882 | 27 ft | 23 kts | 206° |
| 2026-04-20 20:16 | 40.67758 | -74.17967 | 26 ft | 23 kts | 205° |
| 2026-04-20 20:16 | 40.67620 | -74.18039 | 27 ft | 19 kts | 178° |
| 2026-04-20 20:17 | 40.67591 | -74.17904 | 27 ft | 19 kts | 45° |
| 2026-04-20 20:17 | 40.67715 | -74.17833 | 30 ft | 22 kts | 24° |
| 2026-04-20 20:17 | 40.67962 | -74.17678 | 27 ft | 67 kts | 26° |
| 2026-04-20 20:17 | 40.68566 | -74.17293 | 29 ft | 124 kts | 25° |
| 2026-04-20 20:18 | 40.69489 | -74.16699 | 164 ft | 158 kts | 22° |
| 2026-04-20 20:18 | 40.70419 | -74.16081 | 857 ft | 152 kts | 21° |
| 2026-04-20 20:18 | 40.71415 | -74.15439 | 1361 ft | 164 kts | 24° |
| 2026-04-20 20:18 | 40.72444 | -74.14745 | 1982 ft | 168 kts | 20° |
| 2026-04-20 20:19 | 40.73501 | -74.14067 | 2500 ft | 170 kts | 21° |
| 2026-04-20 20:19 | 40.74554 | -74.13375 | 3009 ft | 169 kts | 21° |
| 2026-04-20 20:19 | 40.75619 | -74.12674 | 3305 ft | 181 kts | 24° |
| 2026-04-20 20:19 | 40.76647 | -74.11551 | 3444 ft | 200 kts | 45° |
| 2026-04-20 20:20 | 40.77556 | -74.10089 | 3598 ft | 217 kts | 46° |
| 2026-04-20 20:20 | 40.78568 | -74.08491 | 3727 ft | 237 kts | 46° |
| 2026-04-20 20:20 | 40.79664 | -74.06760 | 4017 ft | 251 kts | 46° |
| 2026-04-20 20:20 | 40.80801 | -74.04967 | 4516 ft | 258 kts | 47° |
| 2026-04-20 20:21 | 40.81963 | -74.03130 | 5093 ft | 262 kts | 47° |
| 2026-04-20 20:21 | 40.83138 | -74.01274 | 5684 ft | 264 kts | 47° |
| 2026-04-20 20:21 | 40.84301 | -73.99444 | 6303 ft | 266 kts | 47° |
| 2026-04-20 20:21 | 40.85496 | -73.97565 | 6892 ft | 268 kts | 47° |
| 2026-04-20 20:22 | 40.86708 | -73.95659 | 7365 ft | 274 kts | 47° |
| 2026-04-20 20:22 | 40.87944 | -73.93715 | 7804 ft | 279 kts | 47° |
| 2026-04-20 20:22 | 40.89201 | -73.91740 | 8300 ft | 283 kts | 47° |
| 2026-04-20 20:22 | 40.90473 | -73.89738 | 8799 ft | 286 kts | 47° |
| 2026-04-20 20:23 | 40.91738 | -73.87745 | 9285 ft | 290 kts | 47° |
| 2026-04-20 20:23 | 40.93044 | -73.85686 | 9775 ft | 294 kts | 47° |
| 2026-04-20 20:23 | 40.94369 | -73.83598 | 10172 ft | 301 kts | 47° |
| 2026-04-20 20:23 | 40.95757 | -73.81413 | 10313 ft | 318 kts | 47° |
| 2026-04-20 20:24 | 40.97204 | -73.79132 | 10442 ft | 336 kts | 47° |
| 2026-04-20 20:24 | 40.98745 | -73.76699 | 10699 ft | 351 kts | 48° |
| 2026-04-20 20:24 | 41.00316 | -73.74215 | 11171 ft | 360 kts | 48° |
| 2026-04-20 20:24 | 41.01920 | -73.71678 | 11766 ft | 366 kts | 48° |
| 2026-04-20 20:25 | 41.03561 | -73.69079 | 12516 ft | 370 kts | 48° |
| 2026-04-20 20:25 | 41.05220 | -73.66445 | 13340 ft | 374 kts | 48° |
| 2026-04-20 20:25 | 41.06898 | -73.63779 | 14091 ft | 379 kts | 48° |
| 2026-04-20 20:25 | 41.08580 | -73.61108 | 14770 ft | 384 kts | 48° |
| 2026-04-20 20:26 | 41.10283 | -73.58403 | 15488 ft | 387 kts | 48° |
| 2026-04-20 20:26 | 41.12017 | -73.55645 | 16226 ft | 390 kts | 48° |
| 2026-04-20 20:26 | 41.13763 | -73.52867 | 16962 ft | 394 kts | 48° |
| 2026-04-20 20:26 | 41.15527 | -73.50056 | 17678 ft | 398 kts | 48° |
| 2026-04-20 20:27 | 41.17307 | -73.47219 | 18395 ft | 402 kts | 48° |
| 2026-04-20 20:27 | 41.19102 | -73.44355 | 19040 ft | 405 kts | 48° |
| 2026-04-20 20:27 | 41.20888 | -73.41501 | 19677 ft | 408 kts | 48° |
| 2026-04-20 20:27 | 41.22711 | -73.38587 | 20350 ft | 411 kts | 48° |
| 2026-04-20 20:28 | 41.23923 | -73.36647 | 20759 ft | 413 kts | 48° |
| 2026-04-20 20:28 | 41.26394 | -73.32688 | 21621 ft | 418 kts | 49° |
| 2026-04-20 20:28 | 41.28258 | -73.29698 | 22259 ft | 421 kts | 49° |
| 2026-04-20 20:28 | 41.30133 | -73.26689 | 22878 ft | 425 kts | 49° |
| 2026-04-20 20:29 | 41.32027 | -73.23645 | 23501 ft | 428 kts | 49° |
| 2026-04-20 20:29 | 41.33937 | -73.20572 | 24036 ft | 432 kts | 49° |
| 2026-04-20 20:29 | 41.35863 | -73.17473 | 24478 ft | 437 kts | 49° |
| 2026-04-20 20:29 | 41.37795 | -73.14313 | 24864 ft | 443 kts | 51° |
| 2026-04-20 20:30 | 41.39543 | -73.10905 | 25266 ft | 449 kts | 58° |
| 2026-04-20 20:30 | 41.41125 | -73.07333 | 25642 ft | 454 kts | 59° |
| 2026-04-20 20:30 | 41.42698 | -73.03704 | 26068 ft | 458 kts | 59° |
| 2026-04-20 20:30 | 41.44279 | -73.00048 | 26492 ft | 462 kts | 59° |
| 2026-04-20 20:31 | 41.45897 | -72.96325 | 26871 ft | 467 kts | 59° |
| 2026-04-20 20:31 | 41.47548 | -72.92548 | 27226 ft | 471 kts | 59° |
| 2026-04-20 20:31 | 41.49209 | -72.88760 | 27560 ft | 476 kts | 59° |
| 2026-04-20 20:31 | 41.50892 | -72.84930 | 27924 ft | 480 kts | 59° |
| 2026-04-20 20:32 | 41.52586 | -72.81072 | 28290 ft | 483 kts | 59° |
| 2026-04-20 20:32 | 41.54291 | -72.77185 | 28637 ft | 487 kts | 59° |
| 2026-04-20 20:32 | 41.55984 | -72.73319 | 28951 ft | 491 kts | 59° |
| 2026-04-20 20:32 | 41.57700 | -72.69394 | 29249 ft | 495 kts | 59° |
| 2026-04-20 20:33 | 41.59439 | -72.65409 | 29577 ft | 499 kts | 59° |
| 2026-04-20 20:33 | 41.61152 | -72.61479 | 29891 ft | 502 kts | 59° |
| 2026-04-20 20:33 | 41.62915 | -72.57431 | 30184 ft | 505 kts | 59° |
| 2026-04-20 20:33 | 41.64692 | -72.53353 | 30439 ft | 508 kts | 59° |
| 2026-04-20 20:34 | 41.66506 | -72.49278 | 30702 ft | 510 kts | 59° |
| 2026-04-20 20:34 | 41.68347 | -72.45206 | 30976 ft | 512 kts | 58° |
| 2026-04-20 20:34 | 41.70174 | -72.41181 | 31239 ft | 514 kts | 59° |
| 2026-04-20 20:34 | 41.72054 | -72.37031 | 31500 ft | 515 kts | 59° |
| 2026-04-20 20:35 | 41.73887 | -72.32968 | 31749 ft | 517 kts | 59° |
| 2026-04-20 20:35 | 41.75668 | -72.29005 | 31970 ft | 519 kts | 59° |
| 2026-04-20 20:35 | 41.77567 | -72.24765 | 32204 ft | 521 kts | 59° |
| 2026-04-20 20:35 | 41.79433 | -72.20589 | 32433 ft | 522 kts | 59° |
| 2026-04-20 20:36 | 41.81302 | -72.16401 | 32619 ft | 524 kts | 59° |
| 2026-04-20 20:36 | 41.83175 | -72.12197 | 32822 ft | 526 kts | 60° |
| 2026-04-20 20:36 | 41.85055 | -72.07975 | 33024 ft | 527 kts | 60° |
| 2026-04-20 20:36 | 41.86933 | -72.03748 | 33198 ft | 529 kts | 60° |
| 2026-04-20 20:37 | 41.88824 | -71.99488 | 33389 ft | 530 kts | 60° |
| 2026-04-20 20:37 | 41.90708 | -71.95239 | 33611 ft | 530 kts | 60° |
| 2026-04-20 20:37 | 41.92594 | -71.90982 | 33858 ft | 530 kts | 60° |
| 2026-04-20 20:37 | 41.94504 | -71.86749 | 34112 ft | 530 kts | 58° |
| 2026-04-20 20:38 | 41.96630 | -71.82688 | 34315 ft | 531 kts | 52° |
| 2026-04-20 20:38 | 41.98203 | -71.80159 | 34411 ft | 532 kts | 48° |
| 2026-04-20 20:38 | 42.00701 | -71.76483 | 34565 ft | 533 kts | 47° |
| 2026-04-20 20:38 | 42.04055 | -71.71638 | 34791 ft | 534 kts | 47° |
| 2026-04-20 20:39 | 42.06591 | -71.67977 | 34962 ft | 535 kts | 47° |
| 2026-04-20 20:39 | 42.09120 | -71.64301 | 35078 ft | 537 kts | 47° |
| 2026-04-20 20:39 | 42.13366 | -71.58064 | 35153 ft | 539 kts | 48° |
| 2026-04-20 20:40 | 42.18387 | -71.50617 | 35166 ft | 536 kts | 48° |
| 2026-04-20 20:40 | 42.23354 | -71.43216 | 35173 ft | 534 kts | 48° |
| 2026-04-20 20:41 | 42.28338 | -71.35778 | 35170 ft | 534 kts | 48° |
| 2026-04-20 20:41 | 42.33322 | -71.28326 | 35176 ft | 535 kts | 48° |
| 2026-04-20 20:42 | 42.38322 | -71.20833 | 35167 ft | 536 kts | 48° |
| 2026-04-20 20:42 | 42.43313 | -71.13333 | 35159 ft | 537 kts | 49° |
| 2026-04-20 20:43 | 42.48308 | -71.05807 | 35156 ft | 537 kts | 49° |
| 2026-04-20 20:43 | 42.53297 | -70.98271 | 35174 ft | 537 kts | 49° |
| 2026-04-20 20:44 | 42.58263 | -70.90751 | 35176 ft | 537 kts | 49° |
| 2026-04-20 20:44 | 42.63190 | -70.83270 | 35175 ft | 537 kts | 49° |